sensor_id;sensor_type;location;lat;lon;timestamp;P1;durP1;ratioP1;P2;durP2;ratioP2
4601;SDS011;2313;48.552;9.370;2023-12-20T00:02:16;1.00;;;0.60;;
4601;SDS011;2313;48.552;9.370;2023-12-20T00:04:41;0.80;;;0.60;;
4601;SDS011;2313;48.552;9.370;2023-12-20T00:07:07;0.80;;;0.50;;
4601;SDS011;2313;48.552;9.370;2023-12-20T00:09:32;0.80;;;0.53;;
4601;SDS011;2313;48.552;9.370;2023-12-20T00:11:58;0.70;;;0.60;;
4601;SDS011;2313;48.552;9.370;2023-12-20T00:14:24;1.40;;;0.50;;
4601;SDS011;2313;48.552;9.370;2023-12-20T00:16:49;0.77;;;0.47;;
4601;SDS011;2313;48.552;9.370;2023-12-20T00:19:15;0.80;;;0.50;;
4601;SDS011;2313;48.552;9.370;2023-12-20T00:21:40;0.70;;;0.57;;
4601;SDS011;2313;48.552;9.370;2023-12-20T00:24:07;0.80;;;0.60;;
4601;SDS011;2313;48.552;9.370;2023-12-20T00:26:32;1.43;;;0.60;;
4601;SDS011;2313;48.552;9.370;2023-12-20T00:28:58;0.70;;;0.50;;
4601;SDS011;2313;48.552;9.370;2023-12-20T00:31:23;0.70;;;0.50;;
4601;SDS011;2313;48.552;9.370;2023-12-20T00:33:49;0.70;;;0.50;;
4601;SDS011;2313;48.552;9.370;2023-12-20T00:36:15;1.13;;;0.50;;
4601;SDS011;2313;48.552;9.370;2023-12-20T00:38:40;0.70;;;0.47;;
4601;SDS011;2313;48.552;9.370;2023-12-20T00:41:06;1.20;;;0.50;;
4601;SDS011;2313;48.552;9.370;2023-12-20T00:43:31;0.60;;;0.40;;
4601;SDS011;2313;48.552;9.370;2023-12-20T00:45:57;2.40;;;0.70;;
4601;SDS011;2313;48.552;9.370;2023-12-20T00:48:24;0.80;;;0.60;;
4601;SDS011;2313;48.552;9.370;2023-12-20T00:50:52;0.80;;;0.67;;
4601;SDS011;2313;48.552;9.370;2023-12-20T00:53:17;0.90;;;0.50;;
4601;SDS011;2313;48.552;9.370;2023-12-20T00:55:43;0.83;;;0.50;;
4601;SDS011;2313;48.552;9.370;2023-12-20T00:58:09;0.70;;;0.40;;
4601;SDS011;2313;48.552;9.370;2023-12-20T01:00:35;0.60;;;0.40;;
4601;SDS011;2313;48.552;9.370;2023-12-20T01:03:01;0.80;;;0.53;;
4601;SDS011;2313;48.552;9.370;2023-12-20T01:05:26;0.60;;;0.40;;
4601;SDS011;2313;48.552;9.370;2023-12-20T01:07:52;0.80;;;0.40;;
4601;SDS011;2313;48.552;9.370;2023-12-20T01:10:17;0.70;;;0.43;;
4601;SDS011;2313;48.552;9.370;2023-12-20T01:12:43;0.70;;;0.40;;
4601;SDS011;2313;48.552;9.370;2023-12-20T01:15:09;1.00;;;0.50;;
4601;SDS011;2313;48.552;9.370;2023-12-20T01:17:35;0.70;;;0.50;;
4601;SDS011;2313;48.552;9.370;2023-12-20T01:20:01;0.60;;;0.40;;
4601;SDS011;2313;48.552;9.370;2023-12-20T01:22:26;1.20;;;0.50;;
4601;SDS011;2313;48.552;9.370;2023-12-20T01:24:52;0.70;;;0.40;;
4601;SDS011;2313;48.552;9.370;2023-12-20T01:27:18;1.40;;;0.83;;
4601;SDS011;2313;48.552;9.370;2023-12-20T01:29:43;0.77;;;0.47;;
4601;SDS011;2313;48.552;9.370;2023-12-20T01:32:09;0.70;;;0.50;;
4601;SDS011;2313;48.552;9.370;2023-12-20T01:34:35;0.80;;;0.53;;
4601;SDS011;2313;48.552;9.370;2023-12-20T01:37:01;0.80;;;0.50;;
4601;SDS011;2313;48.552;9.370;2023-12-20T01:39:27;1.50;;;0.77;;
4601;SDS011;2313;48.552;9.370;2023-12-20T01:41:53;1.00;;;0.63;;
4601;SDS011;2313;48.552;9.370;2023-12-20T01:44:18;1.53;;;0.50;;
4601;SDS011;2313;48.552;9.370;2023-12-20T01:46:45;0.90;;;0.60;;
4601;SDS011;2313;48.552;9.370;2023-12-20T01:49:11;1.40;;;0.60;;
4601;SDS011;2313;48.552;9.370;2023-12-20T01:51:37;0.90;;;0.70;;
4601;SDS011;2313;48.552;9.370;2023-12-20T01:54:03;0.73;;;0.50;;
4601;SDS011;2313;48.552;9.370;2023-12-20T01:56:29;0.80;;;0.60;;
4601;SDS011;2313;48.552;9.370;2023-12-20T01:58:56;1.00;;;0.67;;
4601;SDS011;2313;48.552;9.370;2023-12-20T02:01:22;0.80;;;0.50;;
4601;SDS011;2313;48.552;9.370;2023-12-20T02:03:49;1.00;;;0.50;;
4601;SDS011;2313;48.552;9.370;2023-12-20T02:06:16;0.97;;;0.63;;
4601;SDS011;2313;48.552;9.370;2023-12-20T02:08:43;2.07;;;0.63;;
4601;SDS011;2313;48.552;9.370;2023-12-20T02:11:08;0.90;;;0.60;;
4601;SDS011;2313;48.552;9.370;2023-12-20T02:13:35;1.20;;;0.60;;
4601;SDS011;2313;48.552;9.370;2023-12-20T02:16:01;0.70;;;0.60;;
4601;SDS011;2313;48.552;9.370;2023-12-20T02:18:26;1.10;;;0.67;;
4601;SDS011;2313;48.552;9.370;2023-12-20T02:20:52;0.80;;;0.70;;
4601;SDS011;2313;48.552;9.370;2023-12-20T02:23:18;0.93;;;0.70;;
4601;SDS011;2313;48.552;9.370;2023-12-20T02:25:44;0.90;;;0.70;;
4601;SDS011;2313;48.552;9.370;2023-12-20T02:28:09;2.20;;;0.80;;
4601;SDS011;2313;48.552;9.370;2023-12-20T02:30:35;1.10;;;0.70;;
4601;SDS011;2313;48.552;9.370;2023-12-20T02:33:00;0.90;;;0.70;;
4601;SDS011;2313;48.552;9.370;2023-12-20T02:35:28;1.03;;;0.87;;
4601;SDS011;2313;48.552;9.370;2023-12-20T02:37:54;1.23;;;0.63;;
4601;SDS011;2313;48.552;9.370;2023-12-20T02:40:19;1.03;;;0.60;;
4601;SDS011;2313;48.552;9.370;2023-12-20T02:42:45;2.00;;;0.80;;
4601;SDS011;2313;48.552;9.370;2023-12-20T02:45:10;2.27;;;0.80;;
4601;SDS011;2313;48.552;9.370;2023-12-20T02:47:36;0.97;;;0.70;;
4601;SDS011;2313;48.552;9.370;2023-12-20T02:50:02;0.80;;;0.70;;
4601;SDS011;2313;48.552;9.370;2023-12-20T02:52:28;0.80;;;0.60;;
4601;SDS011;2313;48.552;9.370;2023-12-20T02:54:54;3.00;;;0.60;;
4601;SDS011;2313;48.552;9.370;2023-12-20T02:57:20;0.90;;;0.60;;
4601;SDS011;2313;48.552;9.370;2023-12-20T02:59:45;0.70;;;0.50;;
4601;SDS011;2313;48.552;9.370;2023-12-20T03:02:11;0.70;;;0.60;;
4601;SDS011;2313;48.552;9.370;2023-12-20T03:04:36;0.90;;;0.70;;
4601;SDS011;2313;48.552;9.370;2023-12-20T03:07:02;0.80;;;0.60;;
4601;SDS011;2313;48.552;9.370;2023-12-20T03:09:27;0.90;;;0.60;;
4601;SDS011;2313;48.552;9.370;2023-12-20T03:11:53;0.80;;;0.53;;
4601;SDS011;2313;48.552;9.370;2023-12-20T03:14:19;0.90;;;0.60;;
4601;SDS011;2313;48.552;9.370;2023-12-20T03:16:50;0.80;;;0.70;;
4601;SDS011;2313;48.552;9.370;2023-12-20T03:19:17;0.70;;;0.50;;
4601;SDS011;2313;48.552;9.370;2023-12-20T03:21:43;1.23;;;0.77;;
4601;SDS011;2313;48.552;9.370;2023-12-20T03:24:09;0.93;;;0.60;;
4601;SDS011;2313;48.552;9.370;2023-12-20T03:26:35;0.80;;;0.60;;
4601;SDS011;2313;48.552;9.370;2023-12-20T03:29:00;1.00;;;0.70;;
4601;SDS011;2313;48.552;9.370;2023-12-20T03:31:26;0.73;;;0.53;;
4601;SDS011;2313;48.552;9.370;2023-12-20T03:33:51;0.70;;;0.60;;
4601;SDS011;2313;48.552;9.370;2023-12-20T03:36:18;1.40;;;1.00;;
4601;SDS011;2313;48.552;9.370;2023-12-20T03:38:44;1.03;;;0.70;;
4601;SDS011;2313;48.552;9.370;2023-12-20T03:41:11;0.90;;;0.70;;
4601;SDS011;2313;48.552;9.370;2023-12-20T03:43:36;0.80;;;0.53;;
4601;SDS011;2313;48.552;9.370;2023-12-20T03:46:02;0.70;;;0.60;;
4601;SDS011;2313;48.552;9.370;2023-12-20T03:48:29;0.70;;;0.50;;
4601;SDS011;2313;48.552;9.370;2023-12-20T03:50:56;1.53;;;0.80;;
4601;SDS011;2313;48.552;9.370;2023-12-20T03:53:22;1.20;;;0.50;;
4601;SDS011;2313;48.552;9.370;2023-12-20T03:55:47;0.70;;;0.50;;
4601;SDS011;2313;48.552;9.370;2023-12-20T03:58:13;0.60;;;0.40;;
4601;SDS011;2313;48.552;9.370;2023-12-20T04:00:39;0.67;;;0.40;;
4601;SDS011;2313;48.552;9.370;2023-12-20T04:03:04;0.97;;;0.60;;
4601;SDS011;2313;48.552;9.370;2023-12-20T04:05:30;0.80;;;0.50;;
4601;SDS011;2313;48.552;9.370;2023-12-20T04:07:55;0.93;;;0.50;;
4601;SDS011;2313;48.552;9.370;2023-12-20T04:10:21;1.73;;;0.50;;
4601;SDS011;2313;48.552;9.370;2023-12-20T04:12:46;0.90;;;0.40;;
4601;SDS011;2313;48.552;9.370;2023-12-20T04:15:12;0.70;;;0.40;;
4601;SDS011;2313;48.552;9.370;2023-12-20T04:17:38;0.70;;;0.50;;
4601;SDS011;2313;48.552;9.370;2023-12-20T04:20:03;0.70;;;0.40;;
4601;SDS011;2313;48.552;9.370;2023-12-20T04:22:30;1.63;;;0.50;;
4601;SDS011;2313;48.552;9.370;2023-12-20T04:24:55;0.60;;;0.30;;
4601;SDS011;2313;48.552;9.370;2023-12-20T04:27:21;0.70;;;0.40;;
4601;SDS011;2313;48.552;9.370;2023-12-20T04:29:46;0.60;;;0.40;;
4601;SDS011;2313;48.552;9.370;2023-12-20T04:32:12;0.80;;;0.40;;
4601;SDS011;2313;48.552;9.370;2023-12-20T04:34:38;0.77;;;0.43;;
4601;SDS011;2313;48.552;9.370;2023-12-20T04:37:03;0.70;;;0.40;;
4601;SDS011;2313;48.552;9.370;2023-12-20T04:39:29;0.70;;;0.50;;
4601;SDS011;2313;48.552;9.370;2023-12-20T04:41:55;0.90;;;0.43;;
4601;SDS011;2313;48.552;9.370;2023-12-20T04:44:20;0.60;;;0.33;;
4601;SDS011;2313;48.552;9.370;2023-12-20T04:46:46;0.70;;;0.40;;
4601;SDS011;2313;48.552;9.370;2023-12-20T04:49:11;0.60;;;0.40;;
4601;SDS011;2313;48.552;9.370;2023-12-20T04:51:37;0.70;;;0.40;;
4601;SDS011;2313;48.552;9.370;2023-12-20T04:54:03;0.70;;;0.43;;
4601;SDS011;2313;48.552;9.370;2023-12-20T04:56:29;0.60;;;0.40;;
4601;SDS011;2313;48.552;9.370;2023-12-20T04:58:54;0.70;;;0.30;;
4601;SDS011;2313;48.552;9.370;2023-12-20T05:01:20;0.60;;;0.30;;
4601;SDS011;2313;48.552;9.370;2023-12-20T05:03:46;0.70;;;0.40;;
4601;SDS011;2313;48.552;9.370;2023-12-20T05:06:12;0.70;;;0.40;;
4601;SDS011;2313;48.552;9.370;2023-12-20T05:08:37;0.70;;;0.40;;
4601;SDS011;2313;48.552;9.370;2023-12-20T05:11:03;0.60;;;0.30;;
4601;SDS011;2313;48.552;9.370;2023-12-20T05:13:29;1.00;;;0.40;;
4601;SDS011;2313;48.552;9.370;2023-12-20T05:15:55;0.67;;;0.40;;
4601;SDS011;2313;48.552;9.370;2023-12-20T05:18:21;0.60;;;0.30;;
4601;SDS011;2313;48.552;9.370;2023-12-20T05:20:48;0.67;;;0.30;;
4601;SDS011;2313;48.552;9.370;2023-12-20T05:23:14;0.70;;;0.40;;
4601;SDS011;2313;48.552;9.370;2023-12-20T05:25:40;0.63;;;0.40;;
4601;SDS011;2313;48.552;9.370;2023-12-20T05:28:05;1.00;;;0.40;;
4601;SDS011;2313;48.552;9.370;2023-12-20T05:30:31;0.60;;;0.30;;
4601;SDS011;2313;48.552;9.370;2023-12-20T05:32:57;0.60;;;0.30;;
4601;SDS011;2313;48.552;9.370;2023-12-20T05:35:22;0.73;;;0.37;;
4601;SDS011;2313;48.552;9.370;2023-12-20T05:37:48;0.60;;;0.30;;
4601;SDS011;2313;48.552;9.370;2023-12-20T05:40:14;0.60;;;0.30;;
4601;SDS011;2313;48.552;9.370;2023-12-20T05:42:40;0.67;;;0.43;;
4601;SDS011;2313;48.552;9.370;2023-12-20T05:45:06;0.60;;;0.40;;
4601;SDS011;2313;48.552;9.370;2023-12-20T05:47:31;0.60;;;0.30;;
4601;SDS011;2313;48.552;9.370;2023-12-20T05:49:57;0.60;;;0.30;;
4601;SDS011;2313;48.552;9.370;2023-12-20T05:52:23;0.90;;;0.70;;
4601;SDS011;2313;48.552;9.370;2023-12-20T05:54:48;0.70;;;0.50;;
4601;SDS011;2313;48.552;9.370;2023-12-20T05:57:14;0.70;;;0.40;;
4601;SDS011;2313;48.552;9.370;2023-12-20T05:59:40;4.93;;;0.40;;
4601;SDS011;2313;48.552;9.370;2023-12-20T06:02:05;0.70;;;0.40;;
4601;SDS011;2313;48.552;9.370;2023-12-20T06:04:31;0.70;;;0.47;;
4601;SDS011;2313;48.552;9.370;2023-12-20T06:06:57;0.60;;;0.40;;
4601;SDS011;2313;48.552;9.370;2023-12-20T06:09:23;0.70;;;0.50;;
4601;SDS011;2313;48.552;9.370;2023-12-20T06:11:49;0.80;;;0.57;;
4601;SDS011;2313;48.552;9.370;2023-12-20T06:14:15;0.60;;;0.40;;
4601;SDS011;2313;48.552;9.370;2023-12-20T06:16:41;0.70;;;0.40;;
4601;SDS011;2313;48.552;9.370;2023-12-20T06:19:06;1.47;;;0.40;;
4601;SDS011;2313;48.552;9.370;2023-12-20T06:21:32;0.70;;;0.40;;
4601;SDS011;2313;48.552;9.370;2023-12-20T06:24:00;0.70;;;0.40;;
4601;SDS011;2313;48.552;9.370;2023-12-20T06:26:26;0.70;;;0.40;;
4601;SDS011;2313;48.552;9.370;2023-12-20T06:28:51;0.60;;;0.40;;
4601;SDS011;2313;48.552;9.370;2023-12-20T06:31:17;0.70;;;0.40;;
4601;SDS011;2313;48.552;9.370;2023-12-20T06:33:43;0.70;;;0.40;;
4601;SDS011;2313;48.552;9.370;2023-12-20T06:36:12;0.80;;;0.50;;
4601;SDS011;2313;48.552;9.370;2023-12-20T06:38:38;0.60;;;0.40;;
4601;SDS011;2313;48.552;9.370;2023-12-20T06:41:04;0.63;;;0.40;;
4601;SDS011;2313;48.552;9.370;2023-12-20T06:43:31;0.60;;;0.40;;
4601;SDS011;2313;48.552;9.370;2023-12-20T06:45:57;0.70;;;0.50;;
4601;SDS011;2313;48.552;9.370;2023-12-20T06:48:23;0.60;;;0.40;;
4601;SDS011;2313;48.552;9.370;2023-12-20T06:50:48;0.97;;;0.40;;
4601;SDS011;2313;48.552;9.370;2023-12-20T06:53:14;0.70;;;0.40;;
4601;SDS011;2313;48.552;9.370;2023-12-20T06:55:40;2.57;;;0.47;;
4601;SDS011;2313;48.552;9.370;2023-12-20T06:58:05;0.87;;;0.50;;
4601;SDS011;2313;48.552;9.370;2023-12-20T07:00:32;0.70;;;0.50;;
4601;SDS011;2313;48.552;9.370;2023-12-20T07:02:57;0.70;;;0.40;;
4601;SDS011;2313;48.552;9.370;2023-12-20T07:05:24;0.60;;;0.40;;
4601;SDS011;2313;48.552;9.370;2023-12-20T07:07:50;0.60;;;0.37;;
4601;SDS011;2313;48.552;9.370;2023-12-20T07:10:15;0.70;;;0.43;;
4601;SDS011;2313;48.552;9.370;2023-12-20T07:12:41;1.77;;;0.40;;
4601;SDS011;2313;48.552;9.370;2023-12-20T07:15:07;0.77;;;0.40;;
4601;SDS011;2313;48.552;9.370;2023-12-20T07:17:33;2.07;;;0.50;;
4601;SDS011;2313;48.552;9.370;2023-12-20T07:19:59;1.27;;;0.40;;
4601;SDS011;2313;48.552;9.370;2023-12-20T07:22:29;0.70;;;0.40;;
4601;SDS011;2313;48.552;9.370;2023-12-20T07:24:56;0.70;;;0.40;;
4601;SDS011;2313;48.552;9.370;2023-12-20T07:27:22;4.60;;;0.40;;
4601;SDS011;2313;48.552;9.370;2023-12-20T07:29:48;0.70;;;0.40;;
4601;SDS011;2313;48.552;9.370;2023-12-20T07:32:13;0.60;;;0.30;;
4601;SDS011;2313;48.552;9.370;2023-12-20T07:34:39;0.70;;;0.40;;
4601;SDS011;2313;48.552;9.370;2023-12-20T07:37:05;0.60;;;0.30;;
4601;SDS011;2313;48.552;9.370;2023-12-20T07:39:30;0.70;;;0.40;;
4601;SDS011;2313;48.552;9.370;2023-12-20T07:41:56;0.60;;;0.40;;
4601;SDS011;2313;48.552;9.370;2023-12-20T07:44:21;0.70;;;0.40;;
4601;SDS011;2313;48.552;9.370;2023-12-20T07:46:47;0.77;;;0.40;;
4601;SDS011;2313;48.552;9.370;2023-12-20T07:49:13;0.60;;;0.30;;
4601;SDS011;2313;48.552;9.370;2023-12-20T07:51:39;0.67;;;0.40;;
4601;SDS011;2313;48.552;9.370;2023-12-20T07:54:04;0.70;;;0.40;;
4601;SDS011;2313;48.552;9.370;2023-12-20T07:56:30;0.60;;;0.40;;
4601;SDS011;2313;48.552;9.370;2023-12-20T07:58:56;0.70;;;0.40;;
4601;SDS011;2313;48.552;9.370;2023-12-20T08:01:21;0.60;;;0.40;;
4601;SDS011;2313;48.552;9.370;2023-12-20T08:03:48;1.00;;;0.40;;
4601;SDS011;2313;48.552;9.370;2023-12-20T08:06:15;1.57;;;0.40;;
4601;SDS011;2313;48.552;9.370;2023-12-20T08:08:42;0.70;;;0.40;;
4601;SDS011;2313;48.552;9.370;2023-12-20T08:11:07;0.70;;;0.40;;
4601;SDS011;2313;48.552;9.370;2023-12-20T08:13:33;0.70;;;0.40;;
4601;SDS011;2313;48.552;9.370;2023-12-20T08:15:59;0.70;;;0.40;;
4601;SDS011;2313;48.552;9.370;2023-12-20T08:18:24;0.90;;;0.70;;
4601;SDS011;2313;48.552;9.370;2023-12-20T08:20:50;0.90;;;0.73;;
4601;SDS011;2313;48.552;9.370;2023-12-20T08:23:18;0.93;;;0.60;;
4601;SDS011;2313;48.552;9.370;2023-12-20T08:25:46;1.20;;;0.60;;
4601;SDS011;2313;48.552;9.370;2023-12-20T08:28:11;0.70;;;0.50;;
4601;SDS011;2313;48.552;9.370;2023-12-20T08:30:37;0.80;;;0.60;;
4601;SDS011;2313;48.552;9.370;2023-12-20T08:33:03;0.70;;;0.60;;
4601;SDS011;2313;48.552;9.370;2023-12-20T08:35:29;0.80;;;0.60;;
4601;SDS011;2313;48.552;9.370;2023-12-20T08:37:55;1.07;;;0.63;;
4601;SDS011;2313;48.552;9.370;2023-12-20T08:40:21;0.80;;;0.60;;
4601;SDS011;2313;48.552;9.370;2023-12-20T08:42:47;0.90;;;0.70;;
4601;SDS011;2313;48.552;9.370;2023-12-20T08:45:12;0.77;;;0.60;;
4601;SDS011;2313;48.552;9.370;2023-12-20T08:47:38;0.90;;;0.70;;
4601;SDS011;2313;48.552;9.370;2023-12-20T08:50:06;0.77;;;0.50;;
4601;SDS011;2313;48.552;9.370;2023-12-20T08:52:32;2.93;;;0.67;;
4601;SDS011;2313;48.552;9.370;2023-12-20T08:54:58;0.70;;;0.50;;
4601;SDS011;2313;48.552;9.370;2023-12-20T08:57:23;1.40;;;0.60;;
4601;SDS011;2313;48.552;9.370;2023-12-20T08:59:50;1.40;;;0.60;;
4601;SDS011;2313;48.552;9.370;2023-12-20T09:02:16;4.87;;;0.70;;
4601;SDS011;2313;48.552;9.370;2023-12-20T09:04:42;0.80;;;0.60;;
4601;SDS011;2313;48.552;9.370;2023-12-20T09:07:20;2.30;;;0.60;;
4601;SDS011;2313;48.552;9.370;2023-12-20T09:09:50;1.20;;;0.70;;
4601;SDS011;2313;48.552;9.370;2023-12-20T09:12:19;1.23;;;0.60;;
4601;SDS011;2313;48.552;9.370;2023-12-20T09:14:46;1.07;;;1.00;;
4601;SDS011;2313;48.552;9.370;2023-12-20T09:17:12;1.40;;;1.30;;
4601;SDS011;2313;48.552;9.370;2023-12-20T09:19:38;1.13;;;0.70;;
4601;SDS011;2313;48.552;9.370;2023-12-20T09:22:04;0.83;;;0.80;;
4601;SDS011;2313;48.552;9.370;2023-12-20T09:24:30;1.97;;;1.00;;
4601;SDS011;2313;48.552;9.370;2023-12-20T09:26:56;1.23;;;0.90;;
4601;SDS011;2313;48.552;9.370;2023-12-20T09:29:22;1.17;;;0.90;;
4601;SDS011;2313;48.552;9.370;2023-12-20T09:31:48;1.00;;;0.90;;
4601;SDS011;2313;48.552;9.370;2023-12-20T09:34:14;1.03;;;0.83;;
4601;SDS011;2313;48.552;9.370;2023-12-20T09:36:41;2.50;;;1.00;;
4601;SDS011;2313;48.552;9.370;2023-12-20T09:39:11;1.97;;;1.17;;
4601;SDS011;2313;48.552;9.370;2023-12-20T09:41:38;3.83;;;0.93;;
4601;SDS011;2313;48.552;9.370;2023-12-20T09:44:11;1.90;;;1.10;;
4601;SDS011;2313;48.552;9.370;2023-12-20T09:46:40;2.70;;;1.40;;
4601;SDS011;2313;48.552;9.370;2023-12-20T09:49:09;1.73;;;1.17;;
4601;SDS011;2313;48.552;9.370;2023-12-20T09:51:35;1.87;;;1.40;;
4601;SDS011;2313;48.552;9.370;2023-12-20T09:54:02;2.20;;;1.43;;
4601;SDS011;2313;48.552;9.370;2023-12-20T09:56:29;2.60;;;1.17;;
4601;SDS011;2313;48.552;9.370;2023-12-20T09:58:55;4.03;;;1.00;;
4601;SDS011;2313;48.552;9.370;2023-12-20T10:01:21;1.90;;;1.10;;
4601;SDS011;2313;48.552;9.370;2023-12-20T10:03:46;5.07;;;1.10;;
4601;SDS011;2313;48.552;9.370;2023-12-20T10:06:12;3.20;;;1.40;;
4601;SDS011;2313;48.552;9.370;2023-12-20T10:08:38;4.63;;;1.20;;
4601;SDS011;2313;48.552;9.370;2023-12-20T10:11:04;4.87;;;1.60;;
4601;SDS011;2313;48.552;9.370;2023-12-20T10:13:30;2.37;;;1.37;;
4601;SDS011;2313;48.552;9.370;2023-12-20T10:15:56;1.97;;;1.53;;
4601;SDS011;2313;48.552;9.370;2023-12-20T10:18:22;7.00;;;0.90;;
4601;SDS011;2313;48.552;9.370;2023-12-20T10:20:48;2.00;;;1.80;;
4601;SDS011;2313;48.552;9.370;2023-12-20T10:23:13;2.90;;;1.17;;
4601;SDS011;2313;48.552;9.370;2023-12-20T10:25:41;4.40;;;1.07;;
4601;SDS011;2313;48.552;9.370;2023-12-20T10:28:13;5.27;;;1.73;;
4601;SDS011;2313;48.552;9.370;2023-12-20T10:30:44;2.57;;;1.37;;
4601;SDS011;2313;48.552;9.370;2023-12-20T10:33:09;4.30;;;2.17;;
4601;SDS011;2313;48.552;9.370;2023-12-20T10:35:37;6.67;;;1.50;;
4601;SDS011;2313;48.552;9.370;2023-12-20T10:38:04;3.47;;;1.93;;
4601;SDS011;2313;48.552;9.370;2023-12-20T10:40:30;2.33;;;1.23;;
4601;SDS011;2313;48.552;9.370;2023-12-20T10:42:59;2.17;;;1.00;;
4601;SDS011;2313;48.552;9.370;2023-12-20T10:45:26;1.70;;;1.00;;
4601;SDS011;2313;48.552;9.370;2023-12-20T10:47:51;4.30;;;1.33;;
4601;SDS011;2313;48.552;9.370;2023-12-20T10:50:18;2.30;;;1.00;;
4601;SDS011;2313;48.552;9.370;2023-12-20T10:52:45;2.20;;;1.30;;
4601;SDS011;2313;48.552;9.370;2023-12-20T10:55:12;2.33;;;1.37;;
4601;SDS011;2313;48.552;9.370;2023-12-20T10:57:38;1.90;;;1.10;;
4601;SDS011;2313;48.552;9.370;2023-12-20T11:00:05;3.00;;;1.30;;
4601;SDS011;2313;48.552;9.370;2023-12-20T11:02:39;3.17;;;1.33;;
4601;SDS011;2313;48.552;9.370;2023-12-20T11:08:11;2.47;;;1.13;;
4601;SDS011;2313;48.552;9.370;2023-12-20T11:14:41;2.23;;;1.10;;
4601;SDS011;2313;48.552;9.370;2023-12-20T11:16:40;5.53;;;1.20;;
4601;SDS011;2313;48.552;9.370;2023-12-20T11:19:07;3.10;;;1.03;;
4601;SDS011;2313;48.552;9.370;2023-12-20T11:21:33;5.77;;;1.80;;
4601;SDS011;2313;48.552;9.370;2023-12-20T11:23:59;1.40;;;0.80;;
4601;SDS011;2313;48.552;9.370;2023-12-20T11:26:28;3.00;;;0.90;;
4601;SDS011;2313;48.552;9.370;2023-12-20T11:31:54;2.60;;;1.30;;
4601;SDS011;2313;48.552;9.370;2023-12-20T11:34:20;3.03;;;1.20;;
4601;SDS011;2313;48.552;9.370;2023-12-20T11:36:45;2.70;;;1.00;;
4601;SDS011;2313;48.552;9.370;2023-12-20T11:39:11;4.67;;;1.53;;
4601;SDS011;2313;48.552;9.370;2023-12-20T11:41:38;3.10;;;1.40;;
4601;SDS011;2313;48.552;9.370;2023-12-20T11:44:04;3.77;;;1.10;;
4601;SDS011;2313;48.552;9.370;2023-12-20T11:46:30;3.23;;;1.40;;
4601;SDS011;2313;48.552;9.370;2023-12-20T11:48:56;3.83;;;1.33;;
4601;SDS011;2313;48.552;9.370;2023-12-20T11:51:22;4.83;;;1.60;;
4601;SDS011;2313;48.552;9.370;2023-12-20T11:53:51;2.57;;;1.00;;
4601;SDS011;2313;48.552;9.370;2023-12-20T11:56:18;4.50;;;1.00;;
4601;SDS011;2313;48.552;9.370;2023-12-20T11:58:43;4.67;;;1.00;;
4601;SDS011;2313;48.552;9.370;2023-12-20T12:01:09;2.03;;;1.13;;
4601;SDS011;2313;48.552;9.370;2023-12-20T12:03:35;3.27;;;1.00;;
4601;SDS011;2313;48.552;9.370;2023-12-20T12:06:01;2.70;;;1.10;;
4601;SDS011;2313;48.552;9.370;2023-12-20T12:08:29;1.97;;;1.20;;
4601;SDS011;2313;48.552;9.370;2023-12-20T12:10:55;5.20;;;0.90;;
4601;SDS011;2313;48.552;9.370;2023-12-20T12:13:20;4.23;;;1.10;;
4601;SDS011;2313;48.552;9.370;2023-12-20T12:15:47;2.40;;;1.40;;
4601;SDS011;2313;48.552;9.370;2023-12-20T12:18:16;1.93;;;0.87;;
4601;SDS011;2313;48.552;9.370;2023-12-20T12:20:43;3.90;;;1.10;;
4601;SDS011;2313;48.552;9.370;2023-12-20T12:23:08;2.70;;;0.90;;
4601;SDS011;2313;48.552;9.370;2023-12-20T12:25:37;3.30;;;1.20;;
4601;SDS011;2313;48.552;9.370;2023-12-20T12:28:02;4.83;;;1.00;;
4601;SDS011;2313;48.552;9.370;2023-12-20T12:30:28;3.33;;;0.70;;
4601;SDS011;2313;48.552;9.370;2023-12-20T12:32:55;2.80;;;1.00;;
4601;SDS011;2313;48.552;9.370;2023-12-20T12:35:21;3.53;;;0.70;;
4601;SDS011;2313;48.552;9.370;2023-12-20T12:37:47;1.87;;;0.87;;
4601;SDS011;2313;48.552;9.370;2023-12-20T12:40:13;2.37;;;1.10;;
4601;SDS011;2313;48.552;9.370;2023-12-20T12:42:41;2.17;;;0.80;;
4601;SDS011;2313;48.552;9.370;2023-12-20T12:45:08;6.00;;;1.07;;
4601;SDS011;2313;48.552;9.370;2023-12-20T12:47:34;2.00;;;0.90;;
4601;SDS011;2313;48.552;9.370;2023-12-20T12:50:00;9.93;;;1.23;;
4601;SDS011;2313;48.552;9.370;2023-12-20T12:52:26;1.20;;;0.90;;
4601;SDS011;2313;48.552;9.370;2023-12-20T12:54:52;7.33;;;1.30;;
4601;SDS011;2313;48.552;9.370;2023-12-20T12:57:18;6.20;;;1.40;;
4601;SDS011;2313;48.552;9.370;2023-12-20T12:59:45;5.57;;;1.70;;
4601;SDS011;2313;48.552;9.370;2023-12-20T13:02:14;3.37;;;1.13;;
4601;SDS011;2313;48.552;9.370;2023-12-20T13:04:40;4.40;;;1.33;;
4601;SDS011;2313;48.552;9.370;2023-12-20T13:07:07;3.93;;;1.33;;
4601;SDS011;2313;48.552;9.370;2023-12-20T13:09:35;4.80;;;1.20;;
4601;SDS011;2313;48.552;9.370;2023-12-20T13:12:01;3.23;;;1.20;;
4601;SDS011;2313;48.552;9.370;2023-12-20T13:14:29;2.50;;;0.90;;
4601;SDS011;2313;48.552;9.370;2023-12-20T13:16:57;4.37;;;1.10;;
4601;SDS011;2313;48.552;9.370;2023-12-20T13:19:23;2.03;;;1.17;;
4601;SDS011;2313;48.552;9.370;2023-12-20T13:21:49;7.90;;;2.10;;
4601;SDS011;2313;48.552;9.370;2023-12-20T13:24:14;3.23;;;0.90;;
4601;SDS011;2313;48.552;9.370;2023-12-20T13:26:40;23.83;;;9.67;;
4601;SDS011;2313;48.552;9.370;2023-12-20T13:29:05;9.03;;;2.77;;
4601;SDS011;2313;48.552;9.370;2023-12-20T13:31:31;9.67;;;3.77;;
4601;SDS011;2313;48.552;9.370;2023-12-20T13:33:57;8.60;;;2.67;;
4601;SDS011;2313;48.552;9.370;2023-12-20T13:36:22;16.87;;;7.77;;
4601;SDS011;2313;48.552;9.370;2023-12-20T13:38:48;8.30;;;2.77;;
4601;SDS011;2313;48.552;9.370;2023-12-20T13:41:13;4.40;;;1.70;;
4601;SDS011;2313;48.552;9.370;2023-12-20T13:43:39;8.00;;;1.70;;
4601;SDS011;2313;48.552;9.370;2023-12-20T13:46:04;4.20;;;2.23;;
4601;SDS011;2313;48.552;9.370;2023-12-20T13:48:30;6.23;;;2.90;;
4601;SDS011;2313;48.552;9.370;2023-12-20T13:50:56;7.73;;;3.83;;
4601;SDS011;2313;48.552;9.370;2023-12-20T13:53:21;8.30;;;5.83;;
4601;SDS011;2313;48.552;9.370;2023-12-20T13:55:47;8.53;;;2.53;;
4601;SDS011;2313;48.552;9.370;2023-12-20T13:58:13;5.50;;;1.73;;
4601;SDS011;2313;48.552;9.370;2023-12-20T14:00:39;6.30;;;1.20;;
4601;SDS011;2313;48.552;9.370;2023-12-20T14:03:05;6.30;;;1.30;;
4601;SDS011;2313;48.552;9.370;2023-12-20T14:05:31;3.27;;;1.40;;
4601;SDS011;2313;48.552;9.370;2023-12-20T14:07:56;4.20;;;1.37;;
4601;SDS011;2313;48.552;9.370;2023-12-20T14:10:22;4.30;;;0.97;;
4601;SDS011;2313;48.552;9.370;2023-12-20T14:12:48;4.70;;;1.00;;
4601;SDS011;2313;48.552;9.370;2023-12-20T14:15:14;3.77;;;1.00;;
4601;SDS011;2313;48.552;9.370;2023-12-20T14:17:40;3.53;;;1.20;;
4601;SDS011;2313;48.552;9.370;2023-12-20T14:20:09;10.33;;;1.10;;
4601;SDS011;2313;48.552;9.370;2023-12-20T14:22:36;6.30;;;1.10;;
4601;SDS011;2313;48.552;9.370;2023-12-20T14:25:03;4.13;;;1.30;;
4601;SDS011;2313;48.552;9.370;2023-12-20T14:27:29;2.53;;;1.47;;
4601;SDS011;2313;48.552;9.370;2023-12-20T14:29:55;4.90;;;1.87;;
4601;SDS011;2313;48.552;9.370;2023-12-20T14:32:21;4.17;;;1.20;;
4601;SDS011;2313;48.552;9.370;2023-12-20T14:34:46;2.73;;;1.40;;
4601;SDS011;2313;48.552;9.370;2023-12-20T14:37:12;6.90;;;1.63;;
4601;SDS011;2313;48.552;9.370;2023-12-20T14:39:38;7.90;;;1.20;;
4601;SDS011;2313;48.552;9.370;2023-12-20T14:42:09;2.37;;;1.00;;
4601;SDS011;2313;48.552;9.370;2023-12-20T14:44:42;3.47;;;0.90;;
4601;SDS011;2313;48.552;9.370;2023-12-20T14:47:08;5.10;;;1.23;;
4601;SDS011;2313;48.552;9.370;2023-12-20T14:49:34;4.30;;;1.87;;
4601;SDS011;2313;48.552;9.370;2023-12-20T14:52:00;2.70;;;0.90;;
4601;SDS011;2313;48.552;9.370;2023-12-20T14:54:26;6.23;;;1.17;;
4601;SDS011;2313;48.552;9.370;2023-12-20T14:56:52;6.23;;;1.80;;
4601;SDS011;2313;48.552;9.370;2023-12-20T14:59:18;4.60;;;2.20;;
4601;SDS011;2313;48.552;9.370;2023-12-20T15:01:43;7.80;;;1.50;;
4601;SDS011;2313;48.552;9.370;2023-12-20T15:04:09;2.50;;;1.00;;
4601;SDS011;2313;48.552;9.370;2023-12-20T15:06:35;2.83;;;0.93;;
4601;SDS011;2313;48.552;9.370;2023-12-20T15:09:01;7.20;;;1.47;;
4601;SDS011;2313;48.552;9.370;2023-12-20T15:11:29;7.50;;;2.03;;
4601;SDS011;2313;48.552;9.370;2023-12-20T15:13:55;10.10;;;1.73;;
4601;SDS011;2313;48.552;9.370;2023-12-20T15:16:22;3.50;;;1.20;;
4601;SDS011;2313;48.552;9.370;2023-12-20T15:18:48;6.03;;;1.20;;